Arbovale, West Virginia
Current Conditions -  °F | °C
As of 12:17 AM on Thursday 27 Nov 2014 (Local Time) from KEKN Reporting Station
Haze Haze  
Wind Chill: 33°   Ceiling: 1700
Heat Index: 33°   Visibility: 5mi
Dew Point: 33°   Wind: 0mph
Humidity: 100%   Direction: NA
Pressure: 29.97"   Gusts: NA
Location:  38.44°N, 79.82°W
Report Text: KEKN 270517Z AUTO 00000KT 5SM BR FEW004 BKN017 OVC043 01/01 A2997 RMK AO2 T00060006 TSNO
Loading
Personal Weather Stations






























Interactive Weather Map New forecast layout! Learn more

10-Day Weather Forecast

Advertisements
Track Severe Weather on mobile